EA1JBU-2
43.30.80N 005.16.20W
IN73IM aprs.fi
zuletzt gehoert:
2021-12-06T07:30:11Z
zuerst gehoert:
2020-10-11T15:00:24Z

APRS IN73IM, 0 Stunde(n), EA1JBU-2 [08:49:22, 0s].
EA1JBU 43.30.80N 005.16.20WIN73IM 0.605km 348°NNW07:30:11ZEA1JBU(3EA1JBU-2)
EA1JBE 43.30.90N 005.16.15WIN73IM 0.779km 357°N07:45:31ZEA1JBU(3EA1JBE-13)
MAIN QTH http://qrz.com/db/ea1jbe(2EA1JBE-1)
EA1HWD 43.28.96N 005.26.30WIN73GL 13.971km 258°WSW07:30:52Z144.575FM Local frecuency VHF. 434.2500/434.2500 CC1
EA1FHR 43.28.72N 005.26.41WIN73GL 14.225km 257°WSW07:31:05ZMMDVM MMDVM HS Hat 439.1500/439.1500 CC1
EA1JAY 43.29.33N 005.26.78WIN73GL 14.483km 262°W07:30:11ZEA1JAY(3EA1JAY-2)
EA1HJA 43.28.10N 005.30.45WIN73FL 19.763km 257°WSW07:41:58Z IN73FL WX3IN1+ 2.0 - V=13.2V,TX TEMP=23.1C(3EA1HJA-2)
ED1ZBF 43.19.16N 005.06.74WIN73KH 24.459km 149°SSE07:32:30ZRD625 438.4750/430.8750 CC1
EB1GEM 43.30.00N 005.36.07WIN73EM 26.827km 268°W07:43:35ZWX3in1Plus2.0 U=13.3V,T=??.?C/??.?F(3EB1GEM-3)
EA1FLQ 43.22.00N 005.36.35WIN73EI 31.441km 240°WSW07:31:32ZMMDVM DVMega 439.9750/439.9750 CC1
EA1DZR 43.31.47N 005.40.00WIN73DM 32.154km 273°W07:32:05ZMMDVM MMDVM HS Dual Hat 432.1000/432.1000 CC2
ED1ZAS 43.27.52N 005.40.17WIN73DL 32.806km 261°W07:32:27ZRD985 438.2250/430.6250 CC1
ED1ZAE 43.27.97N 005.40.54WIN73DL 33.168km 262°W07:31:44ZWIDE3-3 ESAS3-3 IN73DL WWW.EA1URG.ORG(3ED1ZAE-3)
2m Voice 145.5875 -0.600 Mhz(2ED1ZAE-C)
LEEL 43.32.98N 005.41.71WIN73DN 34.703km 278°W07:30:10ZHelipuerto de El Musel: LEAS 060630Z 22009KT 9999 SCT032 SCT065 11/07 Q1023 NOSIG=
EB1TK 43.32.22N 005.42.32WIN73DM 35.351km 275°W07:45:44ZWind 223°/010kn, Böen bis 016kn, Temp 12.22c, Regen 0.0mm, letzte 24h 6.1mm, seit 0h 6.1mm, Baro 1025.3h, Hum: 77%(3EB1TK-13)
EA1IPU 43.26.21N 005.46.62WIN73CK 41.766km 259°W07:30:12ZMMDVM MMDVM HS Hat 439.8000/439.8000 CC1
EA1ABW 43.24.77N 005.47.77WIN73CJ 43.872km 256°WSW07:31:52ZMMDVM MMDVM HS Hat 439.8250/439.8250 CC1
LEMR 43.25.83N 005.49.60WIN73CK 45.853km 259°W07:30:10ZAerodromo de la Morgal: LEAS 060630Z 22009KT 9999 SCT032 SCT065 11/07 Q1023 NOSIG=
LEGM 43.26.15N 005.49.84WIN73CK 46.045km 260°W07:30:07ZHelipuerto de La Morgal: LEAS 060630Z 22009KT 9999 SCT032 SCT065 11/07 Q1023 NOSIG=
LEHU 43.22.63N 005.49.57WIN73CJ 47.308km 252°WSW07:30:07ZHelipuerto del HUCA: LEAS 060630Z 22009KT 9999 SCT032 SCT065 11/07 Q1023 NOSIG=
33D00 43.21.63N 005.51.13WIN73BI 49.880km 251°WSW07:01:44Z33-D-00 Protección Civil REMER / Delegación del Gobierno en Asturias

aprs.pl 5.0.011w DL3EL © 2006-2021 [1189145]